createdAt,value
2018-06-16T00:00:05.323Z,978.65
2018-06-16T00:01:05.970Z,978.67
2018-06-16T00:02:05.191Z,978.70
2018-06-16T00:03:05.380Z,978.67
2018-06-16T00:04:05.292Z,978.62
2018-06-16T00:05:05.239Z,978.76
2018-06-16T00:06:06.467Z,978.73
2018-06-16T00:07:05.545Z,978.82
2018-06-16T00:08:05.378Z,978.79
2018-06-16T00:09:05.714Z,978.73
2018-06-16T00:10:05.649Z,978.76
2018-06-16T00:11:05.908Z,978.73
2018-06-16T00:12:04.980Z,978.82
2018-06-16T00:13:05.316Z,978.70
2018-06-16T00:14:05.331Z,978.90
2018-06-16T00:15:05.558Z,978.67
2018-06-16T00:16:06.243Z,978.82
2018-06-16T00:17:06.067Z,978.67
2018-06-16T00:18:05.546Z,978.90
2018-06-16T00:19:05.460Z,978.87
2018-06-16T00:20:05.718Z,978.70
2018-06-16T00:21:05.793Z,978.82
2018-06-16T00:22:05.982Z,978.73
2018-06-16T00:23:05.020Z,978.84
2018-06-16T00:24:05.564Z,978.87
2018-06-16T00:25:05.405Z,978.73
2018-06-16T00:26:05.380Z,978.78
2018-06-16T00:27:05.195Z,978.81
2018-06-16T00:28:11.722Z,978.78
2018-06-16T00:29:05.873Z,978.78
2018-06-16T00:30:06.278Z,978.67
2018-06-16T00:31:05.581Z,978.61
2018-06-16T00:32:05.371Z,978.61
2018-06-16T00:33:05.231Z,978.70
2018-06-16T00:34:05.789Z,978.73
2018-06-16T00:35:05.474Z,978.78
2018-06-16T00:36:10.308Z,978.78
2018-06-16T00:37:05.231Z,978.76
2018-06-16T00:38:05.234Z,978.81
2018-06-16T00:39:05.867Z,978.84
2018-06-16T00:40:10.908Z,978.61
2018-06-16T00:41:05.876Z,978.67
2018-06-16T00:42:05.442Z,978.78
2018-06-16T00:43:05.298Z,978.78
2018-06-16T00:44:05.805Z,978.70
2018-06-16T00:45:10.575Z,978.73
2018-06-16T00:46:10.372Z,978.79
2018-06-16T00:47:05.720Z,978.73
2018-06-16T00:48:05.304Z,978.79
2018-06-16T00:49:05.115Z,978.79
2018-06-16T00:50:05.960Z,978.87
2018-06-16T00:51:05.599Z,978.84
2018-06-16T00:52:05.155Z,978.81
2018-06-16T00:53:05.672Z,978.73
2018-06-16T00:54:05.556Z,978.76
2018-06-16T00:55:05.567Z,978.79
2018-06-16T00:56:05.338Z,978.58
2018-06-16T00:57:05.672Z,978.73
2018-06-16T00:58:05.207Z,978.67
2018-06-16T00:59:05.829Z,978.73
2018-06-16T01:00:05.504Z,978.73
2018-06-16T01:01:11.041Z,978.67
2018-06-16T01:02:06.039Z,978.76
2018-06-16T01:03:05.555Z,978.68
2018-06-16T01:04:05.674Z,978.62
2018-06-16T01:05:12.943Z,978.79
2018-06-16T01:06:05.983Z,978.68
2018-06-16T01:07:05.671Z,978.79
2018-06-16T01:08:05.744Z,978.79
2018-06-16T01:09:05.089Z,978.76
2018-06-16T01:10:05.389Z,978.68
2018-06-16T01:11:05.353Z,978.70
2018-06-16T01:12:05.385Z,978.79
2018-06-16T01:13:05.597Z,978.59
2018-06-16T01:14:05.678Z,978.73
2018-06-16T01:15:10.836Z,978.59
2018-06-16T01:16:05.800Z,978.56
2018-06-16T01:17:05.941Z,978.59
2018-06-16T01:18:05.730Z,978.62
2018-06-16T01:19:05.394Z,978.62
2018-06-16T01:20:05.452Z,978.59
2018-06-16T01:21:05.421Z,978.53
2018-06-16T01:22:05.165Z,978.59
2018-06-16T01:23:05.880Z,978.70
2018-06-16T01:24:05.530Z,978.43
2018-06-16T01:25:05.758Z,978.67
2018-06-16T01:26:05.829Z,978.53
2018-06-16T01:27:05.491Z,978.44
2018-06-16T01:28:06.025Z,978.56
2018-06-16T01:29:06.312Z,978.50
2018-06-16T01:30:05.573Z,978.44
2018-06-16T01:31:05.812Z,978.47
2018-06-16T01:32:05.677Z,978.59
2018-06-16T01:33:05.172Z,978.53
2018-06-16T01:34:05.200Z,978.44
2018-06-16T01:35:05.103Z,978.47
2018-06-16T01:36:05.149Z,978.42
2018-06-16T01:37:06.090Z,978.58
2018-06-16T01:38:11.053Z,978.44
2018-06-16T01:39:05.852Z,978.50
2018-06-16T01:40:05.533Z,978.50
2018-06-16T01:41:05.608Z,978.47
2018-06-16T01:42:05.496Z,978.47
2018-06-16T01:43:05.157Z,978.47
2018-06-16T01:44:05.668Z,978.47
2018-06-16T01:45:06.758Z,978.53
2018-06-16T01:46:05.966Z,978.53
2018-06-16T01:47:08.459Z,978.42
2018-06-16T01:48:05.570Z,978.39
2018-06-16T01:49:05.458Z,978.37
2018-06-16T01:50:05.559Z,978.42
2018-06-16T01:51:10.408Z,978.31
2018-06-16T01:52:05.951Z,978.31
2018-06-16T01:53:05.923Z,978.44
2018-06-16T01:54:06.149Z,978.42
2018-06-16T01:55:05.085Z,978.39
2018-06-16T01:56:10.952Z,978.42
2018-06-16T01:57:06.265Z,978.39
2018-06-16T01:58:05.198Z,978.39
2018-06-16T01:59:10.361Z,978.28
2018-06-16T02:00:06.921Z,978.34
2018-06-16T02:01:05.439Z,978.37
2018-06-16T02:02:05.240Z,978.34
2018-06-16T02:03:05.849Z,978.39
2018-06-16T02:04:05.093Z,978.39
2018-06-16T02:05:06.351Z,978.47
2018-06-16T02:06:05.127Z,978.28
2018-06-16T02:07:05.875Z,978.34
2018-06-16T02:08:05.491Z,978.39
2018-06-16T02:09:05.417Z,978.39
2018-06-16T02:10:05.484Z,978.34
2018-06-16T02:11:05.072Z,978.42
2018-06-16T02:12:05.318Z,978.34
2018-06-16T02:13:05.937Z,978.34
2018-06-16T02:14:05.428Z,978.40
2018-06-16T02:15:05.626Z,978.40
2018-06-16T02:16:05.601Z,978.47
2018-06-16T02:17:05.668Z,978.44
2018-06-16T02:18:05.512Z,978.43
2018-06-16T02:19:05.563Z,978.44
2018-06-16T02:20:05.672Z,978.47
2018-06-16T02:21:05.113Z,978.43
2018-06-16T02:22:05.794Z,978.28
2018-06-16T02:23:05.594Z,978.28
2018-06-16T02:24:08.421Z,978.17
2018-06-16T02:25:05.144Z,978.31
2018-06-16T02:26:05.047Z,978.31
2018-06-16T02:27:05.799Z,978.37
2018-06-16T02:28:05.100Z,978.31
2018-06-16T02:29:05.588Z,978.45
2018-06-16T02:30:05.482Z,978.45
2018-06-16T02:31:05.348Z,978.37
2018-06-16T02:32:05.800Z,978.34
2018-06-16T02:33:05.388Z,978.45
2018-06-16T02:34:05.252Z,978.31
2018-06-16T02:35:05.344Z,978.34
2018-06-16T02:36:05.348Z,978.31
2018-06-16T02:37:05.681Z,978.31
2018-06-16T02:38:05.881Z,978.28
2018-06-16T02:39:05.200Z,978.22
2018-06-16T02:40:05.198Z,978.25
2018-06-16T02:41:04.978Z,978.31
2018-06-16T02:42:05.186Z,978.22
2018-06-16T02:43:05.405Z,978.22
2018-06-16T02:44:05.283Z,978.17
2018-06-16T02:45:04.966Z,978.25
2018-06-16T02:46:05.747Z,978.22
2018-06-16T02:47:05.660Z,978.34
2018-06-16T02:48:05.965Z,978.28
2018-06-16T02:49:05.239Z,978.34
2018-06-16T02:50:05.964Z,978.11
2018-06-16T02:51:11.107Z,978.28
2018-06-16T02:52:05.099Z,978.25
2018-06-16T02:53:06.324Z,978.17
2018-06-16T02:54:05.844Z,978.25
2018-06-16T02:55:05.806Z,978.25
2018-06-16T02:56:05.075Z,978.31
2018-06-16T02:57:05.942Z,978.31
2018-06-16T02:58:05.065Z,978.22
2018-06-16T02:59:05.316Z,978.34
2018-06-16T03:00:05.410Z,978.31
2018-06-16T03:01:05.054Z,978.25
2018-06-16T03:02:05.311Z,978.40
2018-06-16T03:03:05.711Z,978.28
2018-06-16T03:04:05.503Z,978.37
2018-06-16T03:05:05.716Z,978.25
2018-06-16T03:06:05.979Z,978.17
2018-06-16T03:07:05.915Z,978.31
2018-06-16T03:08:05.936Z,978.31
2018-06-16T03:09:06.207Z,978.28
2018-06-16T03:10:05.509Z,978.20
2018-06-16T03:11:05.239Z,978.20
2018-06-16T03:12:10.203Z,978.14
2018-06-16T03:13:05.318Z,978.20
2018-06-16T03:14:05.308Z,978.20
2018-06-16T03:15:05.420Z,978.28
2018-06-16T03:16:05.165Z,978.17
2018-06-16T03:17:10.786Z,978.28
2018-06-16T03:18:05.161Z,978.22
2018-06-16T03:19:06.137Z,978.25
2018-06-16T03:20:05.269Z,978.22
2018-06-16T03:21:05.190Z,978.22
2018-06-16T03:22:05.295Z,978.14
2018-06-16T03:23:06.024Z,978.31
2018-06-16T03:24:05.337Z,978.22
2018-06-16T03:25:05.628Z,978.25
2018-06-16T03:26:05.626Z,978.20
2018-06-16T03:27:05.491Z,978.17
2018-06-16T03:28:05.818Z,978.22
2018-06-16T03:29:11.076Z,978.25
2018-06-16T03:30:05.487Z,978.25
2018-06-16T03:31:05.791Z,978.28
2018-06-16T03:32:05.540Z,978.17
2018-06-16T03:33:05.152Z,978.23
2018-06-16T03:34:05.248Z,978.23
2018-06-16T03:35:06.017Z,978.26
2018-06-16T03:36:05.733Z,978.26
2018-06-16T03:37:05.926Z,978.20
2018-06-16T03:38:05.467Z,978.26
2018-06-16T03:39:05.318Z,978.17
2018-06-16T03:40:05.404Z,978.11
2018-06-16T03:41:05.056Z,978.20
2018-06-16T03:42:10.505Z,978.29
2018-06-16T03:43:05.451Z,978.23
2018-06-16T03:44:05.879Z,978.08
2018-06-16T03:45:04.948Z,978.17
2018-06-16T03:46:04.934Z,978.17
2018-06-16T03:47:05.552Z,978.23
2018-06-16T03:48:05.826Z,978.23
2018-06-16T03:49:05.862Z,978.14
2018-06-16T03:50:10.790Z,978.11
2018-06-16T03:51:06.936Z,978.17
2018-06-16T03:52:05.966Z,978.14
2018-06-16T03:53:06.039Z,978.17
2018-06-16T03:54:05.250Z,978.03
2018-06-16T03:55:06.252Z,978.17
2018-06-16T03:56:05.981Z,978.14
2018-06-16T03:57:05.768Z,978.20
2018-06-16T03:58:05.079Z,978.26
2018-06-16T03:59:05.657Z,978.14
2018-06-16T04:00:05.299Z,978.28
2018-06-16T04:01:05.165Z,978.26
2018-06-16T04:02:06.075Z,978.20
2018-06-16T04:03:04.939Z,978.20
2018-06-16T04:04:05.081Z,978.25
2018-06-16T04:05:10.292Z,978.22
2018-06-16T04:06:05.132Z,978.22
2018-06-16T04:07:05.896Z,978.22
2018-06-16T04:08:05.657Z,978.20
2018-06-16T04:09:05.837Z,978.17
2018-06-16T04:10:05.181Z,978.19
2018-06-16T04:11:05.253Z,978.17
2018-06-16T04:12:05.091Z,978.20
2018-06-16T04:13:05.902Z,978.17
2018-06-16T04:14:05.501Z,978.28
2018-06-16T04:15:05.567Z,978.25
2018-06-16T04:16:05.151Z,978.28
2018-06-16T04:17:05.681Z,978.14
2018-06-16T04:18:05.938Z,978.28
2018-06-16T04:19:05.629Z,978.20
2018-06-16T04:20:05.081Z,978.08
2018-06-16T04:21:05.754Z,978.17
2018-06-16T04:22:06.147Z,978.22
2018-06-16T04:23:06.506Z,978.14
2018-06-16T04:24:05.865Z,978.20
2018-06-16T04:25:06.257Z,978.31
2018-06-16T04:26:05.849Z,978.14
2018-06-16T04:27:05.621Z,978.17
2018-06-16T04:28:06.004Z,978.17
2018-06-16T04:29:05.373Z,978.16
2018-06-16T04:30:05.183Z,978.22
2018-06-16T04:31:05.326Z,978.11
2018-06-16T04:32:05.229Z,978.11
2018-06-16T04:33:05.351Z,978.11
2018-06-16T04:34:05.556Z,978.11
2018-06-16T04:35:05.274Z,978.22
2018-06-16T04:36:05.810Z,978.19
2018-06-16T04:37:05.485Z,978.08
2018-06-16T04:38:05.732Z,978.13
2018-06-16T04:39:05.122Z,978.16
2018-06-16T04:40:05.434Z,978.19
2018-06-16T04:41:05.066Z,978.30
2018-06-16T04:42:05.373Z,978.33
2018-06-16T04:43:05.164Z,978.22
2018-06-16T04:44:05.606Z,978.16
2018-06-16T04:45:05.962Z,978.10
2018-06-16T04:46:05.910Z,978.25
2018-06-16T04:47:05.558Z,978.25
2018-06-16T04:48:05.248Z,978.30
2018-06-16T04:49:05.858Z,978.30
2018-06-16T04:50:05.032Z,978.19
2018-06-16T04:51:05.204Z,978.22
2018-06-16T04:52:05.217Z,978.36
2018-06-16T04:53:05.713Z,978.30
2018-06-16T04:54:06.100Z,978.24
2018-06-16T04:55:05.539Z,978.24
2018-06-16T04:56:05.704Z,978.30
2018-06-16T04:57:05.937Z,978.30
2018-06-16T04:58:05.755Z,978.36
2018-06-16T04:59:06.002Z,978.15
2018-06-16T05:00:05.361Z,978.33
2018-06-16T05:01:06.055Z,978.30
2018-06-16T05:02:05.641Z,978.24
2018-06-16T05:03:05.763Z,978.33
2018-06-16T05:04:10.846Z,978.30
2018-06-16T05:05:05.822Z,978.27
2018-06-16T05:06:05.611Z,978.32
2018-06-16T05:07:05.043Z,978.35
2018-06-16T05:08:05.205Z,978.44
2018-06-16T05:09:05.138Z,978.35
2018-06-16T05:10:05.309Z,978.35
2018-06-16T05:11:05.144Z,978.35
2018-06-16T05:12:05.857Z,978.32
2018-06-16T05:13:05.805Z,978.26
2018-06-16T05:14:10.336Z,978.38
2018-06-16T05:15:10.798Z,978.32
2018-06-16T05:16:05.823Z,978.26
2018-06-16T05:17:05.371Z,978.35
2018-06-16T05:18:05.978Z,978.38
2018-06-16T05:19:06.155Z,978.35
2018-06-16T05:20:05.589Z,978.35
2018-06-16T05:21:05.340Z,978.43
2018-06-16T05:22:05.823Z,978.43
2018-06-16T05:23:05.490Z,978.26
2018-06-16T05:24:05.663Z,978.38
2018-06-16T05:25:05.740Z,978.38
2018-06-16T05:26:05.257Z,978.38
2018-06-16T05:27:06.028Z,978.32
2018-06-16T05:28:05.620Z,978.29
2018-06-16T05:29:05.140Z,978.35
2018-06-16T05:30:06.411Z,978.38
2018-06-16T05:31:05.569Z,978.40
2018-06-16T05:32:10.424Z,978.32
2018-06-16T05:33:05.077Z,978.35
2018-06-16T05:34:05.038Z,978.37
2018-06-16T05:35:05.908Z,978.32
2018-06-16T05:36:05.401Z,978.40
2018-06-16T05:37:05.491Z,978.48
2018-06-16T05:38:10.213Z,978.43
2018-06-16T05:39:05.705Z,978.37
2018-06-16T05:40:05.980Z,978.51
2018-06-16T05:41:05.475Z,978.45
2018-06-16T05:42:05.483Z,978.51
2018-06-16T05:43:05.069Z,978.45
2018-06-16T05:44:05.763Z,978.31
2018-06-16T05:45:05.634Z,978.40
2018-06-16T05:46:05.517Z,978.51
2018-06-16T05:47:05.322Z,978.26
2018-06-16T05:48:05.169Z,978.56
2018-06-16T05:49:05.525Z,978.43
2018-06-16T05:50:05.335Z,978.45
2018-06-16T05:51:05.734Z,978.43
2018-06-16T05:52:05.229Z,978.45
2018-06-16T05:53:05.179Z,978.48
2018-06-16T05:54:06.064Z,978.51
2018-06-16T05:55:05.125Z,978.50
2018-06-16T05:56:06.238Z,978.48
2018-06-16T05:57:05.644Z,978.48
2018-06-16T05:58:05.247Z,978.37
2018-06-16T05:59:05.652Z,978.43
2018-06-16T06:00:05.911Z,978.40
2018-06-16T06:01:05.718Z,978.44
2018-06-16T06:02:05.829Z,978.40
2018-06-16T06:03:05.148Z,978.42
2018-06-16T06:04:05.106Z,978.44
2018-06-16T06:05:05.815Z,978.50
2018-06-16T06:06:05.331Z,978.39
2018-06-16T06:07:05.893Z,978.44
2018-06-16T06:08:05.799Z,978.44
2018-06-16T06:09:05.726Z,978.39
2018-06-16T06:10:05.034Z,978.39
2018-06-16T06:11:05.931Z,978.53
2018-06-16T06:12:05.048Z,978.47
2018-06-16T06:13:05.451Z,978.55
2018-06-16T06:14:05.116Z,978.47
2018-06-16T06:15:05.701Z,978.55
2018-06-16T06:16:05.758Z,978.44
2018-06-16T06:17:05.856Z,978.47
2018-06-16T06:18:04.944Z,978.47
2018-06-16T06:19:05.801Z,978.64
2018-06-16T06:20:05.681Z,978.49
2018-06-16T06:21:05.182Z,978.58
2018-06-16T06:22:05.251Z,978.78
2018-06-16T06:23:06.919Z,978.55
2018-06-16T06:24:05.877Z,978.58
2018-06-16T06:25:05.383Z,978.55
2018-06-16T06:26:05.777Z,978.66
2018-06-16T06:27:10.412Z,978.63
2018-06-16T06:28:07.069Z,978.60
2018-06-16T06:29:05.919Z,978.60
2018-06-16T06:30:05.578Z,978.48
2018-06-16T06:31:05.923Z,978.60
2018-06-16T06:32:05.518Z,978.51
2018-06-16T06:33:05.356Z,978.43
2018-06-16T06:34:05.563Z,978.54
2018-06-16T06:35:05.275Z,978.59
2018-06-16T06:36:05.629Z,978.37
2018-06-16T06:37:05.015Z,978.43
2018-06-16T06:38:05.663Z,978.44
2018-06-16T06:39:06.105Z,978.59
2018-06-16T06:40:05.230Z,978.50
2018-06-16T06:41:10.880Z,978.44
2018-06-16T06:42:05.210Z,978.56
2018-06-16T06:43:05.652Z,978.53
2018-06-16T06:44:05.638Z,978.50
2018-06-16T06:45:05.596Z,978.46
2018-06-16T06:46:05.583Z,978.46
2018-06-16T06:47:06.000Z,978.52
2018-06-16T06:48:05.823Z,978.39
2018-06-16T06:49:05.292Z,978.44
2018-06-16T06:50:05.185Z,978.41
2018-06-16T06:51:06.097Z,978.35
2018-06-16T06:52:05.391Z,978.49
2018-06-16T06:53:05.344Z,978.52
2018-06-16T06:54:06.032Z,978.41
2018-06-16T06:55:10.459Z,978.38
2018-06-16T06:56:10.542Z,978.44
2018-06-16T06:57:05.514Z,978.41
2018-06-16T06:58:05.275Z,978.17
2018-06-16T06:59:05.899Z,978.29
2018-06-16T07:00:05.064Z,978.40
2018-06-16T07:01:06.071Z,978.29
2018-06-16T07:02:05.879Z,978.31
2018-06-16T07:03:05.000Z,978.40
2018-06-16T07:04:05.841Z,978.25
2018-06-16T07:05:05.375Z,978.37
2018-06-16T07:06:05.810Z,978.31
2018-06-16T07:07:06.071Z,978.25
2018-06-16T07:08:06.166Z,978.33
2018-06-16T07:09:05.594Z,978.30
2018-06-16T07:10:05.257Z,978.39
2018-06-16T07:11:05.453Z,978.39
2018-06-16T07:12:05.512Z,978.42
2018-06-16T07:13:06.813Z,978.49
2018-06-16T07:14:05.987Z,978.36
2018-06-16T07:15:05.462Z,978.49
2018-06-16T07:16:05.192Z,978.38
2018-06-16T07:17:05.886Z,978.38
2018-06-16T07:18:05.874Z,978.38
2018-06-16T07:19:11.027Z,978.29
2018-06-16T07:20:05.321Z,978.23
2018-06-16T07:21:05.279Z,978.35
2018-06-16T07:22:05.874Z,978.32
2018-06-16T07:23:05.537Z,978.23
2018-06-16T07:24:05.525Z,978.26
2018-06-16T07:25:05.966Z,978.34
2018-06-16T07:26:05.335Z,978.25
2018-06-16T07:27:05.400Z,978.28
2018-06-16T07:28:05.632Z,978.28
2018-06-16T07:29:05.081Z,978.28
2018-06-16T07:30:05.598Z,978.28
2018-06-16T07:31:05.400Z,978.31
2018-06-16T07:32:05.625Z,978.22
2018-06-16T07:33:06.555Z,978.36
2018-06-16T07:34:06.073Z,978.36
2018-06-16T07:35:05.313Z,978.30
2018-06-16T07:36:10.873Z,978.27
2018-06-16T07:37:06.072Z,978.21
2018-06-16T07:38:05.145Z,978.38
2018-06-16T07:39:05.398Z,978.35
2018-06-16T07:40:05.932Z,978.32
2018-06-16T07:41:05.721Z,978.32
2018-06-16T07:42:05.364Z,978.29
2018-06-16T07:43:05.102Z,978.35
2018-06-16T07:44:05.945Z,978.29
2018-06-16T07:45:05.636Z,978.26
2018-06-16T07:46:05.469Z,978.28
2018-06-16T07:47:05.905Z,978.31
2018-06-16T07:48:05.459Z,978.25
2018-06-16T07:49:05.331Z,978.34
2018-06-16T07:50:05.760Z,978.42
2018-06-16T07:51:05.593Z,978.25
2018-06-16T07:52:05.576Z,978.44
2018-06-16T07:53:05.326Z,978.27
2018-06-16T07:54:05.270Z,978.36
2018-06-16T07:55:05.254Z,978.41
2018-06-16T07:56:05.357Z,978.32
2018-06-16T07:57:05.219Z,978.38
2018-06-16T07:58:05.248Z,978.45
2018-06-16T07:59:05.869Z,978.32
2018-06-16T08:00:05.560Z,978.48
2018-06-16T08:01:05.141Z,978.31
2018-06-16T08:02:05.824Z,978.28
2018-06-16T08:03:05.799Z,978.44
2018-06-16T08:04:06.229Z,978.22
2018-06-16T08:05:05.271Z,978.36
2018-06-16T08:06:05.422Z,978.30
2018-06-16T08:07:05.372Z,978.33
2018-06-16T08:08:05.304Z,978.27
2018-06-16T08:09:05.803Z,978.35
2018-06-16T08:10:05.218Z,978.32
2018-06-16T08:11:05.129Z,978.35
2018-06-16T08:12:05.902Z,978.38
2018-06-16T08:13:05.308Z,978.37
2018-06-16T08:14:05.148Z,978.37
2018-06-16T08:15:05.056Z,978.34
2018-06-16T08:16:05.320Z,978.30
2018-06-16T08:17:05.152Z,978.39
2018-06-16T08:18:05.727Z,978.36
2018-06-16T08:19:06.916Z,978.26
2018-06-16T08:20:05.991Z,978.29
2018-06-16T08:21:05.106Z,978.28
2018-06-16T08:22:05.249Z,978.31
2018-06-16T08:23:04.963Z,978.36
2018-06-16T08:24:05.071Z,978.33
2018-06-16T08:25:05.702Z,978.30
2018-06-16T08:26:05.761Z,978.33
2018-06-16T08:27:05.407Z,978.26
2018-06-16T08:28:05.752Z,978.38
2018-06-16T08:29:05.262Z,978.29
2018-06-16T08:30:06.132Z,978.32
2018-06-16T08:31:05.020Z,978.34
2018-06-16T08:32:05.611Z,978.48
2018-06-16T08:33:05.682Z,978.37
2018-06-16T08:34:05.316Z,978.28
2018-06-16T08:35:05.938Z,978.31
2018-06-16T08:36:05.263Z,978.37
2018-06-16T08:37:05.457Z,978.44
2018-06-16T08:38:05.790Z,978.39
2018-06-16T08:39:05.361Z,978.47
2018-06-16T08:40:05.998Z,978.42
2018-06-16T08:41:05.505Z,978.47
2018-06-16T08:42:05.685Z,978.52
2018-06-16T08:43:05.458Z,978.44
2018-06-16T08:44:05.669Z,978.52
2018-06-16T08:45:05.507Z,978.55
2018-06-16T08:46:05.955Z,978.41
2018-06-16T08:47:05.872Z,978.35
2018-06-16T08:48:05.934Z,978.32
2018-06-16T08:49:05.820Z,978.37
2018-06-16T08:50:05.912Z,978.43
2018-06-16T08:51:05.926Z,978.22
2018-06-16T08:52:05.678Z,978.47
2018-06-16T08:53:05.399Z,978.44
2018-06-16T08:54:05.365Z,978.33
2018-06-16T08:55:05.657Z,978.27
2018-06-16T08:56:05.168Z,978.27
2018-06-16T08:57:05.158Z,978.36
2018-06-16T08:58:05.254Z,978.33
2018-06-16T08:59:05.140Z,978.44
2018-06-16T09:00:05.945Z,978.27
2018-06-16T09:01:05.645Z,978.42
2018-06-16T09:02:05.793Z,978.33
2018-06-16T09:03:05.752Z,978.44
2018-06-16T09:04:05.816Z,978.30
2018-06-16T09:05:05.480Z,978.36
2018-06-16T09:06:05.580Z,978.42
2018-06-16T09:07:05.515Z,978.33
2018-06-16T09:08:05.247Z,978.30
2018-06-16T09:09:05.740Z,978.30
2018-06-16T09:10:06.501Z,978.39
2018-06-16T09:11:06.107Z,978.33
2018-06-16T09:12:05.403Z,978.44
2018-06-16T09:13:06.005Z,978.32
2018-06-16T09:14:06.909Z,978.26
2018-06-16T09:15:05.395Z,978.32
2018-06-16T09:16:05.194Z,978.38
2018-06-16T09:17:05.110Z,978.32
2018-06-16T09:18:04.986Z,978.29
2018-06-16T09:19:05.038Z,978.32
2018-06-16T09:20:06.297Z,978.35
2018-06-16T09:21:05.638Z,978.32
2018-06-16T09:22:05.851Z,978.20
2018-06-16T09:23:05.682Z,978.25
2018-06-16T09:24:05.193Z,978.43
2018-06-16T09:25:05.192Z,978.37
2018-06-16T09:26:15.750Z,978.34
2018-06-16T09:27:05.667Z,978.48
2018-06-16T09:28:10.221Z,978.43
2018-06-16T09:29:05.325Z,978.39
2018-06-16T09:30:05.567Z,978.25
2018-06-16T09:31:05.371Z,978.30
2018-06-16T09:32:05.678Z,978.39
2018-06-16T09:33:05.331Z,978.24
2018-06-16T09:34:05.753Z,978.33
2018-06-16T09:35:05.435Z,978.30
2018-06-16T09:36:05.110Z,978.30
2018-06-16T09:37:05.246Z,978.46
2018-06-16T09:38:05.471Z,978.29
2018-06-16T09:39:05.560Z,978.35
2018-06-16T09:40:05.424Z,978.35
2018-06-16T09:41:05.028Z,978.35
2018-06-16T09:42:05.326Z,978.35
2018-06-16T09:43:05.894Z,978.41
2018-06-16T09:44:05.200Z,978.46
2018-06-16T09:45:05.910Z,978.29
2018-06-16T09:46:05.214Z,978.23
2018-06-16T09:47:05.698Z,978.32
2018-06-16T09:48:05.289Z,978.38
2018-06-16T09:49:05.246Z,978.32
2018-06-16T09:50:05.339Z,978.34
2018-06-16T09:51:05.284Z,978.45
2018-06-16T09:52:05.138Z,978.34
2018-06-16T09:53:05.100Z,978.28
2018-06-16T09:54:10.761Z,978.23
2018-06-16T09:55:06.077Z,978.37
2018-06-16T09:56:05.209Z,978.22
2018-06-16T09:57:05.298Z,978.37
2018-06-16T09:58:05.319Z,978.34
2018-06-16T09:59:05.241Z,978.43
2018-06-16T10:00:05.152Z,978.45
2018-06-16T10:01:05.656Z,978.40
2018-06-16T10:02:06.755Z,978.45
2018-06-16T10:03:05.792Z,978.40
2018-06-16T10:04:05.393Z,978.28
2018-06-16T10:05:06.128Z,978.37
2018-06-16T10:06:05.677Z,978.43
2018-06-16T10:07:05.301Z,978.37
2018-06-16T10:08:05.306Z,978.31
2018-06-16T10:09:05.481Z,978.36
2018-06-16T10:10:05.062Z,978.33
2018-06-16T10:11:06.012Z,978.44
2018-06-16T10:12:05.609Z,978.30
2018-06-16T10:13:04.998Z,978.24
2018-06-16T10:14:05.152Z,978.24
2018-06-16T10:15:05.683Z,978.30
2018-06-16T10:16:05.218Z,978.38
2018-06-16T10:17:05.151Z,978.35
2018-06-16T10:18:05.862Z,978.23
2018-06-16T10:19:05.896Z,978.26
2018-06-16T10:20:05.305Z,978.20
2018-06-16T10:21:05.417Z,978.29
2018-06-16T10:22:04.976Z,978.44
2018-06-16T10:23:05.096Z,978.26
2018-06-16T10:24:05.069Z,978.26
2018-06-16T10:25:05.230Z,978.20
2018-06-16T10:26:05.870Z,978.29
2018-06-16T10:27:05.414Z,978.20
2018-06-16T10:28:05.603Z,978.32
2018-06-16T10:29:06.001Z,978.32
2018-06-16T10:30:05.847Z,978.20
2018-06-16T10:31:06.067Z,978.26
2018-06-16T10:32:05.946Z,978.26
2018-06-16T10:33:05.519Z,978.26
2018-06-16T10:34:05.116Z,978.23
2018-06-16T10:35:05.403Z,978.20
2018-06-16T10:36:05.498Z,978.29
2018-06-16T10:37:05.757Z,978.29
2018-06-16T10:38:06.001Z,978.20
2018-06-16T10:39:05.812Z,978.26
2018-06-16T10:40:05.336Z,978.26
2018-06-16T10:41:05.952Z,978.23
2018-06-16T10:42:05.959Z,978.14
2018-06-16T10:43:05.326Z,978.29
2018-06-16T10:44:10.389Z,978.14
2018-06-16T10:45:05.247Z,978.23
2018-06-16T10:46:05.948Z,978.17
2018-06-16T10:47:05.587Z,978.14
2018-06-16T10:48:10.134Z,978.25
2018-06-16T10:49:05.901Z,978.20
2018-06-16T10:50:04.938Z,978.17
2018-06-16T10:51:05.624Z,978.11
2018-06-16T10:52:05.690Z,978.20
2018-06-16T10:53:05.858Z,978.14
2018-06-16T10:54:05.727Z,978.17
2018-06-16T10:55:05.537Z,978.14
2018-06-16T10:56:04.959Z,978.11
2018-06-16T10:57:05.899Z,978.11
2018-06-16T10:58:05.441Z,978.11
2018-06-16T10:59:05.418Z,978.22
2018-06-16T11:00:05.518Z,978.16
2018-06-16T11:01:10.591Z,978.25
2018-06-16T11:02:05.506Z,978.13
2018-06-16T11:03:05.349Z,978.16
2018-06-16T11:04:05.758Z,978.07
2018-06-16T11:05:05.877Z,978.10
2018-06-16T11:06:05.467Z,978.07
2018-06-16T11:07:05.180Z,978.19
2018-06-16T11:08:05.854Z,978.16
2018-06-16T11:09:05.909Z,978.16
2018-06-16T11:10:06.428Z,978.22
2018-06-16T11:11:05.282Z,978.22
2018-06-16T11:12:10.206Z,978.16
2018-06-16T11:13:05.480Z,978.25
2018-06-16T11:14:05.657Z,978.16
2018-06-16T11:15:05.435Z,978.07
2018-06-16T11:16:05.076Z,978.10
2018-06-16T11:17:05.964Z,978.16
2018-06-16T11:18:05.923Z,978.16
2018-06-16T11:19:05.885Z,978.10
2018-06-16T11:20:10.094Z,978.04
2018-06-16T11:21:05.250Z,978.10
2018-06-16T11:22:05.348Z,978.10
2018-06-16T11:23:05.543Z,978.15
2018-06-16T11:24:05.762Z,978.10
2018-06-16T11:25:05.881Z,978.04
2018-06-16T11:26:05.903Z,978.01
2018-06-16T11:27:06.265Z,978.15
2018-06-16T11:28:05.166Z,978.03
2018-06-16T11:29:05.640Z,978.12
2018-06-16T11:30:06.607Z,978.03
2018-06-16T11:31:05.612Z,977.94
2018-06-16T11:32:05.557Z,978.00
2018-06-16T11:33:05.703Z,978.09
2018-06-16T11:34:05.276Z,977.91
2018-06-16T11:35:05.402Z,977.88
2018-06-16T11:36:10.624Z,978.00
2018-06-16T11:37:05.938Z,978.03
2018-06-16T11:38:05.204Z,978.00
2018-06-16T11:39:11.152Z,977.97
2018-06-16T11:40:05.849Z,977.91
2018-06-16T11:41:05.636Z,977.85
2018-06-16T11:42:05.069Z,977.88
2018-06-16T11:43:05.145Z,977.85
2018-06-16T11:44:05.270Z,977.85
2018-06-16T11:45:05.985Z,977.91
2018-06-16T11:46:05.405Z,977.97
2018-06-16T11:47:05.116Z,977.85
2018-06-16T11:48:05.207Z,977.96
2018-06-16T11:49:05.726Z,977.91
2018-06-16T11:50:05.562Z,977.90
2018-06-16T11:51:05.488Z,977.90
2018-06-16T11:52:05.539Z,977.93
2018-06-16T11:53:05.289Z,977.96
2018-06-16T11:54:05.905Z,977.81
2018-06-16T11:55:05.400Z,977.93
2018-06-16T11:56:05.566Z,977.81
2018-06-16T11:57:05.822Z,977.78
2018-06-16T11:58:05.408Z,977.84
2018-06-16T11:59:05.445Z,977.84
2018-06-16T12:00:05.501Z,977.84
2018-06-16T12:01:05.255Z,977.84
2018-06-16T12:02:05.205Z,977.84
2018-06-16T12:03:05.921Z,977.86
2018-06-16T12:04:06.321Z,977.83
2018-06-16T12:05:05.468Z,977.77
2018-06-16T12:06:06.183Z,977.77
2018-06-16T12:07:05.667Z,977.77
2018-06-16T12:08:05.859Z,977.60
2018-06-16T12:09:05.739Z,977.74
2018-06-16T12:10:06.007Z,977.54
2018-06-16T12:11:05.835Z,977.74
2018-06-16T12:12:05.863Z,977.74
2018-06-16T12:13:05.347Z,977.68
2018-06-16T12:14:06.018Z,977.57
2018-06-16T12:15:05.222Z,977.73
2018-06-16T12:16:06.286Z,977.67
2018-06-16T12:17:05.838Z,977.56
2018-06-16T12:18:05.464Z,977.47
2018-06-16T12:19:06.185Z,977.59
2018-06-16T12:20:05.630Z,977.50
2018-06-16T12:21:05.365Z,977.56
2018-06-16T12:22:05.221Z,977.41
2018-06-16T12:23:04.980Z,977.47
2018-06-16T12:24:05.078Z,977.53
2018-06-16T12:25:05.665Z,977.56
2018-06-16T12:26:05.308Z,977.44
2018-06-16T12:27:05.889Z,977.50
2018-06-16T12:28:05.662Z,977.53